Flight Track Log - Related Links

Times and Time Zones

All times are in EDT time to prevent confusion due to time zone crossing. See the UAL1083 flight status page for this flight to view local times or setup timezone preferences in your user account.

Time Position Orientation Groundspeed Altitude Reporting Facility
EDT Latitude Longitude Course Direction KTS MPH feet Rate Location/Type
Mon 04:55:06 PM 33.9108 -118.5317 251° West 245 282 4,200  Level Los Center
Mon 04:56:08 PM 33.8878 -118.6125 251° West 255 293 7,100 2,710 Climbing Los Center
Mon 04:57:10 PM 33.8233 -118.6244 189° South 254 292 9,800 2,226 Climbing Los Center
Mon 04:58:12 PM 33.8306 -118.5422 84° East 300 345 11,700 1,790 Climbing Los Center
Mon 04:59:14 PM 33.9072 -118.4614 41° Northeast 353 406 13,500 1,935 Climbing Los Center
Mon 05:00:16 PM 33.9725 -118.3661 50° Northeast 372 428 15,700 2,081 Climbing Los Center
Mon 05:01:18 PM 34.0325 -118.2581 56° Northeast 381 438 17,800 1,645 Climbing Los Center
Mon 05:02:20 PM 34.0972 -118.1461 55° Northeast 395 455 19,100 1,248 Climbing Los Center
Mon 05:03:23 PM 34.1664 -118.0225 56° Northeast 431 496 20,400 1,632 Climbing Los Center
Mon 05:04:25 PM 34.2525 -117.8686 56° Northeast 453 521 22,500 1,694 Climbing Los Center
Mon 05:05:27 PM 34.3253 -117.7386 56° Northeast 464 534 23,900 1,306 Climbing Los Center
Mon 05:06:29 PM 34.4044 -117.5964 56° Northeast 479 551 25,200 1,258 Climbing Los Center
Mon 05:07:31 PM 34.4811 -117.4572 56° Northeast 495 570 26,500 1,161 Climbing Los Center
Mon 05:08:33 PM 34.5725 -117.3306 49° Northeast 504 580 27,600 1,210 Climbing Los Center
Mon 05:09:35 PM 34.6647 -117.2019 49° Northeast 509 586 29,000 1,306 Climbing Los Center
Mon 05:10:37 PM 34.7553 -117.0719 50° Northeast 509 586 30,300 1,355 Climbing Los Center
Mon 05:11:39 PM 34.8650 -116.9183 49° Northeast 506 582 31,800 1,161 Climbing Los Center
Mon 05:12:41 PM 34.9567 -116.7881 49° Northeast 507 583 32,700 960 Climbing Los Center
Mon 05:13:44 PM 35.0489 -116.6558 50° Northeast 512 589 33,800 876 Climbing Los Center
Mon 05:14:58 PM 35.1406 -116.5247 49° Northeast 512 589 34,700 794 Climbing Los Center
Mon 05:16:00 PM 35.2517 -116.3672 49° Northeast 510 587 35,600 774 Climbing Los Center
Mon 05:17:02 PM 35.3633 -116.2050 50° Northeast 519 597 36,300 677 Climbing Los Center
Mon 05:18:04 PM 35.4556 -116.0700 50° Northeast 520 598 37,000 336 Climbing Los Center
Mon 05:19:07 PM 35.5519 -115.9339 49° Northeast 526 605 37,000  Level Los Center
Mon 05:20:09 PM 35.6572 -115.7806 50° Northeast 522 601 37,000  Level Los Center
Mon 05:21:11 PM 35.7514 -115.6447 49° Northeast 524 603 37,000  Level Los Center
Mon 05:22:13 PM 35.8275 -115.4964 58° Northeast 519 597 37,000  Level Los Center
Mon 05:23:15 PM 35.8842 -115.3347 67° East 519 597 37,000  Level Los Center
Mon 05:24:17 PM 35.9503 -115.1433 67° East 512 589 37,000  Level Los Center
Mon 05:25:19 PM 36.0075 -114.9814 66° East 516 594 37,000  Level Los Center
Mon 05:26:21 PM 36.0642 -114.8189 67° East 518 596 37,000  Level Los Center
Mon 05:27:23 PM 36.1222 -114.6544 66° East 522 601 37,000  Level Los Center
Mon 05:28:25 PM 36.1786 -114.4883 67° East 525 604 37,000  Level Los Center
Mon 05:29:27 PM 36.2356 -114.3219 67° East 526 605 37,000  Level Los Center
Mon 05:30:30 PM 36.3058 -114.1208 67° East 530 610 37,000  Level Los Center
Mon 05:31:32 PM 36.3617 -113.9531 68° East 529 609 37,000  Level Los Center
Mon 05:32:34 PM 36.4194 -113.7842 67° East 531 611 37,000  Level Los Center
Mon 05:33:36 PM 36.4750 -113.6167 68° East 528 608 37,000  Level Los Center
Mon 05:34:38 PM 36.5364 -113.4361 67° East 526 605 37,000  Level Los Center
Mon 05:35:40 PM 36.5925 -113.2689 67° East 526 605 37,000  Level Los Center
Mon 05:36:42 PM 36.6481 -113.1022 67° East 524 603 37,000  Level Los Center
Mon 05:37:44 PM 36.7156 -112.9022 67° East 525 604 37,000  Level Los Center
Mon 05:38:46 PM 36.7703 -112.7342 68° East 527 606 37,000  Level Los Center
Mon 05:39:49 PM 36.8247 -112.5664 68° East 525 604 37,000  Level Los Center
Mon 05:40:51 PM 36.8800 -112.3975 68° East 529 609 37,000  Level Los Center
Mon 05:41:53 PM 36.9339 -112.2286 68° East 527 606 37,000  Level Los Center
Mon 05:42:55 PM 36.9994 -112.0261 68° East 527 606 37,000  Level Los Center
Mon 05:43:57 PM 37.0536 -111.8561 68° East 529 609 37,000  Level Los Center
Mon 05:44:59 PM 37.1072 -111.6858 68° East 529 609 37,000  Level Los Center
Mon 05:45:58 PM 37.1600 -111.5161 69° East 529 609 37,000  Level Denver Center
Mon 05:47:00 PM 37.2136 -111.3461 68° East 527 606 37,000  Level Denver Center
Mon 05:48:02 PM 37.2650 -111.1767 69° East 523 602 37,000  Level Denver Center
Mon 05:49:04 PM 37.3172 -111.0067 69° East 524 603 37,000  Level Denver Center
Mon 05:50:06 PM 37.3797 -110.8019 69° East 526 605 37,000  Level Denver Center
Mon 05:51:08 PM 37.4319 -110.6308 69° East 526 605 37,000  Level Denver Center
Mon 05:52:10 PM 37.4833 -110.4647 69° East 526 605 37,000  Level Denver Center
Mon 05:53:12 PM 37.5417 -110.2706 69° East 529 609 37,000  Level Denver Center
Mon 05:54:14 PM 37.5914 -110.1039 69° East 529 609 37,000  Level Denver Center
Mon 05:55:29 PM 37.6489 -109.9094 69° East 530 610 37,000  Level Denver Center
Mon 05:56:31 PM 37.7053 -109.7153 70° East 526 605 37,000  Level Denver Center
Mon 05:57:33 PM 37.7631 -109.5208 69° East 528 608 37,000  Level Denver Center
Mon 05:58:35 PM 37.8111 -109.3544 70° East 528 608 37,000  Level Denver Center
Mon 05:59:37 PM 37.8678 -109.1578 70° East 532 612 37,000  Level Denver Center
Mon 06:00:39 PM 37.9161 -108.9883 70° East 533 613 37,000  Level Denver Center
Mon 06:01:41 PM 37.9725 -108.7908 70° East 532 612 37,000  Level Denver Center
Mon 06:02:44 PM 38.0200 -108.6222 70° East 531 611 37,000  Level Denver Center
Mon 06:03:46 PM 38.0689 -108.4469 70° East 536 617 37,000  Level Denver Center
Mon 06:04:48 PM 38.1236 -108.2492 71° East 534 615 37,000  Level Denver Center
Mon 06:05:50 PM 38.1703 -108.0803 71° East 530 610 37,000  Level Denver Center
Mon 06:06:52 PM 38.2247 -107.8864 70° East 525 604 37,000  Level Denver Center
Mon 06:07:54 PM 38.2689 -107.7183 71° East 526 605 37,000  Level Denver Center
Mon 06:08:56 PM 38.3222 -107.5231 71° East 525 604 37,000  Level Denver Center
Mon 06:09:58 PM 38.3611 -107.3819 71° East 527 606 37,000  Level Denver Center
Mon 06:11:00 PM 38.4136 -107.1842 71° East 522 601 37,000  Level Denver Center
Mon 06:12:02 PM 38.4619 -107.0092 71° East 525 604 37,000  Level Denver Center
Mon 06:13:04 PM 38.5358 -106.8072 65° Northeast 528 608 37,000  Level Denver Center
Mon 06:14:06 PM 38.5969 -106.6378 65° Northeast 526 605 37,000  Level Denver Center
Mon 06:15:08 PM 38.6572 -106.4672 66° East 529 609 37,000  Level Denver Center
Mon 06:16:10 PM 38.7172 -106.2967 66° East 530 610 37,000  Level Denver Center
Mon 06:17:12 PM 38.7836 -106.1092 66° East 531 611 37,000  Level Denver Center
Mon 06:18:14 PM 38.8436 -105.9358 66° East 533 613 37,000  Level Denver Center
Mon 06:19:16 PM 38.9044 -105.7639 66° East 532 612 37,000  Level Denver Center
Mon 06:20:18 PM 38.9767 -105.5569 66° East 531 611 37,000  Level Denver Center
Mon 06:21:20 PM 39.0361 -105.3833 66° East 532 612 37,000  Level Denver Center
Mon 06:22:22 PM 39.0947 -105.2111 66° East 529 609 37,000  Level Denver Center
Mon 06:23:24 PM 39.1550 -105.0378 66° East 534 615 37,000  Level Denver Center
Mon 06:24:26 PM 39.2119 -104.8681 67° East 521 600 37,000  Level Denver Center
Mon 06:25:40 PM 39.2800 -104.6631 67° East 523 602 37,000  Level Denver Center
Mon 06:26:43 PM 39.3475 -104.4589 67° East 526 605 37,000  Level Denver Center
Mon 06:27:45 PM 39.4042 -104.2889 67° East 524 603 37,000  Level Denver Center
Mon 06:28:46 PM 39.4500 -104.1519 67° East 524 603 37,000  Level Denver Center
Mon 06:29:48 PM 39.5275 -103.9519 63° Northeast 518 596 37,000  Level Denver Center
Mon 06:30:50 PM 39.6044 -103.7506 64° Northeast 525 604 37,000  Level Denver Center
Mon 06:31:52 PM 39.6672 -103.5869 63° Northeast 513 590 37,000  Level Denver Center
Mon 06:32:54 PM 39.7311 -103.4192 64° Northeast 519 597 37,000  Level Denver Center
Mon 06:33:56 PM 39.7958 -103.2525 63° Northeast 518 596 37,000  Level Denver Center
Mon 06:34:58 PM 39.8592 -103.0853 64° Northeast 518 596 37,000  Level Denver Center
Mon 06:36:00 PM 39.9253 -102.9172 63° Northeast 522 601 37,000  Level Denver Center
Mon 06:37:02 PM 39.9994 -102.7139 64° Northeast 519 597 37,000  Level Denver Center
Mon 06:38:04 PM 40.0261 -102.5392 79° East 519 597 37,000  Level Denver Center
Mon 06:39:06 PM 40.0453 -102.3239 83° East 534 615 37,000  Level Denver Center
Mon 06:40:08 PM 40.0636 -102.1422 82° East 530 610 37,000  Level Denver Center
Mon 06:41:10 PM 40.0831 -101.9289 83° East 533 613 37,000  Level Denver Center
Mon 06:42:12 PM 40.1017 -101.7467 82° East 530 610 37,000  Level Denver Center
Mon 06:43:14 PM 40.1206 -101.5342 83° East 530 610 37,000  Level Denver Center
Mon 06:44:16 PM 40.1369 -101.3550 83° East 523 602 37,000  Level Denver Center
Mon 06:45:17 PM 40.1511 -101.2050 83° East 523 602 37,000  Level Denver Center
Mon 06:46:20 PM 40.1719 -100.9650 83° East 523 602 37,000  Level Denver Center
Mon 06:47:22 PM 40.1892 -100.7567 84° East 520 598 37,000  Level Denver Center
Mon 06:48:24 PM 40.2061 -100.5783 83° East 521 600 37,000  Level Denver Center
Mon 06:49:26 PM 40.2467 -100.3753 75° East 522 601 37,000  Level Denver Center
Mon 06:50:27 PM 40.2814 -100.2014 75° East 520 598 37,000  Level Denver Center
Mon 06:51:29 PM 40.3103 -100.0564 75° East 519 597 37,000  Level Denver Center
Mon 06:52:43 PM 40.3517 -99.8469 75° East 513 590 37,000  Level Denver Center
Mon 06:53:45 PM 40.3933 -99.6303 76° East 513 590 37,000  Level Denver Center
Mon 06:54:47 PM 40.4342 -99.4147 76° East 510 587 37,000  Level Denver Center
Mon 06:55:49 PM 40.4689 -99.2361 76° East 508 585 37,000  Level Denver Center
Mon 06:56:50 PM 40.4956 -99.0944 76° East 510 587 37,000  Level Minneapolis Center
Mon 06:57:52 PM 40.5361 -98.8789 76° East 510 587 37,000  Level Minneapolis Center
Mon 06:58:54 PM 40.5686 -98.6997 77° East 508 585 37,000  Level Minneapolis Center
Mon 06:59:56 PM 40.6081 -98.4836 76° East 510 587 37,000  Level Minneapolis Center
Mon 07:00:59 PM 40.6403 -98.3039 77° East 510 587 37,000  Level Minneapolis Center
Mon 07:02:01 PM 40.6725 -98.1231 77° East 511 588 37,000  Level Minneapolis Center
Mon 07:03:03 PM 40.7042 -97.9406 77° East 513 590 37,000  Level Minneapolis Center
Mon 07:04:05 PM 40.7358 -97.7586 77° East 513 590 37,000  Level Minneapolis Center
Mon 07:05:07 PM 40.7747 -97.5394 77° East 513 590 37,000  Level Minneapolis Center
Mon 07:06:09 PM 40.8061 -97.3556 77° East 515 593 37,000  Level Minneapolis Center
Mon 07:07:11 PM 40.8378 -97.1633 78° East 513 590 37,000  Level Minneapolis Center
Mon 07:08:13 PM 40.8697 -96.9803 77° East 514 592 37,000  Level Minneapolis Center
Mon 07:09:15 PM 40.9003 -96.7969 78° East 512 589 37,000  Level Minneapolis Center
Mon 07:10:17 PM 40.9300 -96.6136 78° East 512 589 37,000  Level Minneapolis Center
Mon 07:11:19 PM 40.9597 -96.4322 78° East 510 587 37,000  Level Minneapolis Center
Mon 07:12:22 PM 40.9947 -96.2164 78° East 507 583 37,000  Level Minneapolis Center
Mon 07:13:24 PM 41.0225 -96.0372 78° East 504 580 37,000  Level Minneapolis Center
Mon 07:14:26 PM 41.0514 -95.8583 78° East 503 579 37,000  Level Minneapolis Center
Mon 07:15:28 PM 41.0794 -95.6767 78° East 506 582 37,000  Level Minneapolis Center
Mon 07:16:30 PM 41.1078 -95.4942 78° East 509 586 37,000  Level Minneapolis Center
Mon 07:17:34 PM 41.1425 -95.2744 78° East 510 587 37,000  Level Minneapolis Center
Mon 07:18:36 PM 41.1700 -95.0894 79° East 513 590 37,000  Level Minneapolis Center
Mon 07:19:38 PM 41.1969 -94.9044 79° East 512 589 37,000  Level Minneapolis Center
Mon 07:20:53 PM 41.2303 -94.6808 79° East 515 593 37,000  Level Minneapolis Center
Mon 07:21:55 PM 41.2628 -94.4542 79° East 520 598 37,000  Level Minneapolis Center
Mon 07:22:57 PM 41.2894 -94.2642 79° East 523 602 37,000  Level Minneapolis Center
Mon 07:23:59 PM 41.3144 -94.0864 79° East 523 602 37,000  Level Minneapolis Center
Mon 07:25:13 PM 41.3411 -93.8958 79° East 525 604 37,000  Level Minneapolis Center
Mon 07:26:15 PM 41.3781 -93.6300 79° East 526 605 37,000  Level Minneapolis Center
Mon 07:27:17 PM 41.4050 -93.4375 79° East 528 608 37,000  Level Minneapolis Center
Mon 07:28:19 PM 41.4306 -93.2456 80° East 529 609 37,000  Level Minneapolis Center
Mon 07:29:21 PM 41.4556 -93.0531 80° East 529 609 37,000  Level Minneapolis Center
Mon 07:30:23 PM 41.4811 -92.8619 80° East 528 608 37,000  Level Minneapolis Center
Mon 07:31:25 PM 41.5053 -92.6722 80° East 525 604 37,000  Level Minneapolis Center
Mon 07:31:56 PM 41.5181 -92.5683 81° East 525 604 37,000  Level Chicago Center
Mon 07:32:59 PM 41.5467 -92.3403 80° East 527 606 37,000  Level Chicago Center
Mon 07:34:00 PM 41.5700 -92.1489 81° East 528 608 37,000  Level Chicago Center
Mon 07:35:02 PM 41.5928 -91.9619 81° East 524 603 37,000  Level Chicago Center
Mon 07:36:04 PM 41.6158 -91.7728 81° East 523 602 37,000  Level Chicago Center
Mon 07:37:06 PM 41.6383 -91.5833 81° East 523 602 37,000  Level Chicago Center
Mon 07:38:08 PM 41.6647 -91.3553 81° East 526 605 37,000  Level Chicago Center
Mon 07:39:10 PM 41.6864 -91.1650 81° East 526 605 37,000  Level Chicago Center
Mon 07:40:12 PM 41.7083 -90.9747 81° East 526 605 37,000  Level Chicago Center
Mon 07:41:15 PM 41.7292 -90.7842 82° East 526 605 37,000  Level Chicago Center
Mon 07:42:18 PM 41.7522 -90.5706 82° East 524 603 37,000  Level Chicago Center
Mon 07:43:19 PM 41.7658 -90.3769 85° East 522 601 37,000  Level Chicago Center
Mon 07:44:21 PM 41.7786 -90.1842 85° East 519 597 37,000  Level Chicago Center
Mon 07:45:23 PM 41.7928 -89.9900 84° East 521 600 37,000  Level Chicago Center
Mon 07:46:25 PM 41.8058 -89.7781 85° East 521 600 37,000  Level Chicago Center
Mon 07:47:27 PM 41.8211 -89.5531 85° East 521 600 37,000  Level Chicago Center
Mon 07:48:29 PM 41.8331 -89.3650 85° East 528 608 37,000  Level Chicago Center
Mon 07:49:31 PM 41.8444 -89.1611 86° East 524 603 37,000  Level Chicago Center
Mon 07:50:33 PM 41.8569 -88.9642 85° East 529 609 37,000  Level Chicago Center
Mon 07:51:36 PM 41.8678 -88.7681 86° East 531 611 37,000  Level Chicago Center
Mon 07:52:38 PM 41.8803 -88.5400 86° East 528 608 37,000  Level Chicago Center
Mon 07:53:40 PM 41.8914 -88.3414 86° East 532 612 37,000  Level Chicago Center
Mon 07:54:42 PM 41.9019 -88.1453 86° East 532 612 37,000  Level Chicago Center
Mon 07:55:44 PM 41.9119 -87.9481 86° East 532 612 37,000  Level Chicago Center
Mon 07:56:46 PM 41.9217 -87.7525 86° East 528 608 37,000  Level Chicago Center
Mon 07:57:48 PM 41.9317 -87.5281 86° East 520 598 37,000  Level Chicago Center
Mon 07:58:50 PM 41.9403 -87.3489 86° East 521 600 37,000  Level Chicago Center
Mon 07:59:52 PM 41.9489 -87.1542 87° East 522 601 37,000  Level Chicago Center
Mon 08:00:58 PM 41.9589 -86.9217 87° East 522 601 37,000  Level Chicago Center
Mon 08:02:00 PM 41.9664 -86.7261 87° East 524 603 37,000  Level Chicago Center
Mon 08:03:02 PM 41.9733 -86.5319 87° East 520 598 37,000  Level Chicago Center
Mon 08:04:04 PM 41.9811 -86.3356 87° East 525 604 37,000  Level Chicago Center
Mon 08:05:06 PM 41.9875 -86.1397 87° East 526 605 37,000 -290 Level Chicago Center
Mon 08:06:08 PM 41.9953 -85.9031 87° East 526 605 36,400 -768 Descending Chicago Center
Mon 08:07:11 PM 42.0022 -85.7061 87° East 526 605 35,400 -912 Descending Chicago Center
Mon 08:08:13 PM 41.9942 -85.5061 93° East 533 613 34,500 -823 Descending Chicago Center
Mon 08:09:15 PM 41.9786 -85.3067 96° East 533 613 33,700 -726 Descending Chicago Center
Mon 08:10:17 PM 41.9689 -85.1078 94° East 529 609 33,000 -532 Descending Chicago Center
Mon 08:11:19 PM 41.9811 -84.9136 85° East 519 597 32,600 -677 Descending Chicago Center
Mon 08:12:21 PM 41.9908 -84.7081 86° East 523 602 31,600 -919 Descending Chicago Center
Mon 08:13:23 PM 42.0008 -84.5167 86° East 521 600 30,700 -919 Descending Chicago Center
Mon 08:14:25 PM 42.0094 -84.3275 86° East 514 592 29,700 -823 Descending Chicago Center
Mon 08:15:27 PM 42.0206 -84.1011 86° East 509 586 29,000 -581 Descending Chicago Center
Mon 08:16:29 PM 42.0292 -83.9114 86° East 510 587 28,500 -672 Descending Chicago Center
Mon 08:17:32 PM 42.0389 -83.7208 86° East 511 588 27,600 -926 Descending Chicago Center
Mon 08:18:45 PM 42.0439 -83.4911 88° East 512 589 26,400 -992 Descending Cleveland Center
Mon 08:19:45 PM 42.0319 -83.3033 95° East 512 589 25,400 -1,700 Descending Cleveland Center
Mon 08:20:45 PM 42.0133 -83.1153 98° East 512 589 23,000 -2,550 Descending Cleveland Center
Mon 08:21:45 PM 41.9961 -82.9414 98° East 495 570 20,300 -1,500 Descending Cleveland Center
Mon 08:22:45 PM 41.9786 -82.7758 98° East 467 537 20,000 -950 Descending Cleveland Center
Mon 08:23:45 PM 41.9647 -82.6244 97° East 433 498 18,400 -2,500 Descending Cleveland Center
Mon 08:24:45 PM 41.9339 -82.4756 106° East 416 479 15,000 -3,400 Descending Cleveland Center
Mon 08:25:15 PM 41.9081 -82.3967 114° Southeast 424 488 13,300 -2,700 Descending Cleveland Center
Mon 08:25:45 PM 41.8903 -82.3347 111° Southeast 410 472 12,300 -2,459 Descending Cleveland Center
Mon 08:26:16 PM 41.8642 -82.2617 116° Southeast 387 445 10,800 -1,714 Descending Cleveland Center
Mon 08:27:16 PM 41.8119 -82.1350 119° Southeast 356 410 9,700 -1,041 Descending Cleveland Center
Mon 08:28:17 PM 41.7419 -82.0692 145° Southeast 285 328 8,700 -1,328 Descending Cleveland Center
Mon 08:29:18 PM 41.6739 -82.0119 148° Southeast 288 331 7,000 -1,488 Descending Cleveland Center
Mon 08:30:18 PM 41.6289 -81.9278 126° Southeast 274 315 5,700 -1,041 Descending Cleveland Center
Mon 08:31:19 PM 41.5925 -81.8436 120° Southeast 252 290 4,900 -1,131 Descending Cleveland Center
Mon 08:32:20 PM 41.5578 -81.7653 121° Southeast 246 283 3,400 -992 Descending Cleveland Center
Mon 08:33:20 PM 41.5039 -81.7339 156° South 215 247 2,900 -595 Descending Cleveland Center
Mon 08:34:21 PM 41.4639 -81.7719 215° Southwest 158 182 2,200 -689 Descending Cleveland Center
Mon 08:35:22 PM 41.4364 -81.8128 228° Southwest 147 169 1,500 -689 Descending Cleveland Center

Login

Don't have an account? Register now (free) for customized features, flight alerts, and more!